createdAt,value
2022-11-27T00:00:36.878Z,14.09
2022-11-27T00:03:03.394Z,14.85
2022-11-27T00:05:29.901Z,14.26
2022-11-27T00:07:56.381Z,14.45
2022-11-27T00:10:22.804Z,14.51
2022-11-27T00:12:49.206Z,14.55
2022-11-27T00:15:17.328Z,15.17
2022-11-27T00:17:43.935Z,15.76
2022-11-27T00:20:10.333Z,14.97
2022-11-27T00:22:36.784Z,14.85
2022-11-27T00:25:03.171Z,16.01
2022-11-27T00:27:29.549Z,16.08
2022-11-27T00:29:55.983Z,15.75
2022-11-27T00:32:22.413Z,15.34
2022-11-27T00:34:48.832Z,15.07
2022-11-27T00:37:15.231Z,15.40
2022-11-27T00:39:41.693Z,15.09
2022-11-27T00:42:08.117Z,15.03
2022-11-27T00:44:34.597Z,15.08
2022-11-27T00:47:01.736Z,14.74
2022-11-27T00:49:30.246Z,13.55
2022-11-27T00:51:57.079Z,13.55
2022-11-27T00:54:24.479Z,13.23
2022-11-27T00:56:52.072Z,12.96
2022-11-27T00:59:18.653Z,10.63
2022-11-27T01:01:46.333Z,9.76
2022-11-27T01:04:13.860Z,8.83
2022-11-27T01:06:40.479Z,8.29
2022-11-27T01:09:07.057Z,8.29
2022-11-27T01:11:34.664Z,8.34
2022-11-27T01:14:01.335Z,8.71
2022-11-27T01:16:28.952Z,8.15
2022-11-27T01:18:55.398Z,9.37
2022-11-27T01:21:22.088Z,9.96
2022-11-27T01:23:48.694Z,10.77
2022-11-27T01:26:15.271Z,10.24
2022-11-27T01:28:41.758Z,11.14
2022-11-27T01:31:09.506Z,11.72
2022-11-27T01:33:37.050Z,12.46
2022-11-27T01:36:03.645Z,12.67
2022-11-27T01:38:31.256Z,13.95
2022-11-27T01:41:00.110Z,13.53
2022-11-27T01:43:27.475Z,14.24
2022-11-27T01:45:55.063Z,13.85
2022-11-27T01:48:22.640Z,12.91
2022-11-27T01:50:49.254Z,10.07
2022-11-27T01:53:16.831Z,9.33
2022-11-27T01:55:43.260Z,8.57
2022-11-27T01:58:10.054Z,8.06
2022-11-27T02:00:37.634Z,7.83
2022-11-27T02:03:05.284Z,7.30
2022-11-27T02:05:32.803Z,7.44
2022-11-27T02:07:59.528Z,8.03
2022-11-27T02:10:26.381Z,7.91
2022-11-27T02:12:53.604Z,8.21
2022-11-27T02:15:20.204Z,9.27
2022-11-27T02:17:47.797Z,9.28
2022-11-27T02:20:15.394Z,8.86
2022-11-27T02:22:43.002Z,9.04
2022-11-27T02:25:10.599Z,8.95
2022-11-27T02:27:37.175Z,9.21
2022-11-27T02:30:03.798Z,10.17
2022-11-27T02:32:32.362Z,13.55
2022-11-27T02:34:59.955Z,13.80
2022-11-27T02:37:26.544Z,11.66
2022-11-27T02:39:53.130Z,11.57
2022-11-27T02:42:19.723Z,12.98
2022-11-27T02:44:46.520Z,13.40
2022-11-27T02:47:13.928Z,13.46
2022-11-27T02:49:41.534Z,13.23
2022-11-27T02:52:08.725Z,12.77
2022-11-27T02:54:35.681Z,13.29
2022-11-27T02:57:02.275Z,12.58
2022-11-27T02:59:29.854Z,12.67
2022-11-27T03:01:56.472Z,11.42
2022-11-27T03:04:23.050Z,9.65
2022-11-27T03:06:49.647Z,9.85
2022-11-27T03:09:17.239Z,10.88
2022-11-27T03:11:44.840Z,10.76
2022-11-27T03:14:11.435Z,10.14
2022-11-27T03:16:39.016Z,9.15
2022-11-27T03:19:05.608Z,8.57
2022-11-27T03:21:33.298Z,7.36
2022-11-27T03:23:59.903Z,6.80
2022-11-27T03:26:27.517Z,6.60
2022-11-27T03:28:53.996Z,6.21
2022-11-27T03:31:21.745Z,5.88
2022-11-27T03:33:49.300Z,6.12
2022-11-27T03:36:15.892Z,6.07
2022-11-27T03:38:44.482Z,6.65
2022-11-27T03:41:11.081Z,7.10
2022-11-27T03:43:37.675Z,7.06
2022-11-27T03:46:04.299Z,7.01
2022-11-27T03:48:31.835Z,7.36
2022-11-27T03:50:58.424Z,8.50
2022-11-27T03:53:25.017Z,8.71
2022-11-27T03:55:51.619Z,9.32
2022-11-27T03:58:18.217Z,9.70
2022-11-27T04:00:44.834Z,9.94
2022-11-27T04:03:12.405Z,9.66
2022-11-27T04:05:39.013Z,9.46
2022-11-27T04:08:06.584Z,8.54
2022-11-27T04:10:33.189Z,7.00
2022-11-27T04:12:59.768Z,7.95
2022-11-27T04:15:26.347Z,7.64
2022-11-27T04:17:52.963Z,7.32
2022-11-27T04:20:20.557Z,7.56
2022-11-27T04:22:47.136Z,8.01
2022-11-27T04:25:14.769Z,9.25
2022-11-27T04:27:42.342Z,8.87
2022-11-27T04:30:09.938Z,8.96
2022-11-27T04:32:36.567Z,13.56
2022-11-27T04:35:04.139Z,13.28
2022-11-27T04:37:31.716Z,11.61
2022-11-27T04:39:59.303Z,10.30
2022-11-27T04:42:25.894Z,10.36
2022-11-27T04:44:52.469Z,11.83
2022-11-27T04:47:19.049Z,12.69
2022-11-27T04:49:46.653Z,13.19
2022-11-27T04:52:14.231Z,12.92
2022-11-27T04:54:42.021Z,12.01
2022-11-27T04:57:09.407Z,11.74
2022-11-27T04:59:36.011Z,11.83
2022-11-27T05:02:02.680Z,10.79
2022-11-27T05:04:31.231Z,9.71
2022-11-27T05:06:57.827Z,9.07
2022-11-27T05:09:24.403Z,9.18
2022-11-27T05:11:52.994Z,8.90
2022-11-27T05:14:19.586Z,9.03
2022-11-27T05:16:46.193Z,9.82
2022-11-27T05:19:13.757Z,9.31
2022-11-27T05:21:41.350Z,9.05
2022-11-27T05:24:07.958Z,8.92
2022-11-27T05:26:35.544Z,9.32
2022-11-27T05:29:02.089Z,10.02
2022-11-27T05:31:28.765Z,9.78
2022-11-27T05:33:56.349Z,10.37
2022-11-27T05:36:23.923Z,10.47
2022-11-27T05:38:50.521Z,11.62
2022-11-27T05:41:19.092Z,11.32
2022-11-27T05:43:46.701Z,10.50
2022-11-27T05:46:13.309Z,10.13
2022-11-27T05:48:40.866Z,9.83
2022-11-27T05:51:08.453Z,17.43
2022-11-27T05:53:35.064Z,11.53
2022-11-27T05:56:01.664Z,9.85
2022-11-27T05:58:28.251Z,11.48
2022-11-27T06:00:54.847Z,11.84
2022-11-27T06:03:21.502Z,12.01
2022-11-27T06:05:49.066Z,12.12
2022-11-27T06:08:16.702Z,13.94
2022-11-27T06:10:44.233Z,34.33
2022-11-27T06:13:10.668Z,61.67
2022-11-27T06:15:38.427Z,43.18
2022-11-27T06:18:06.006Z,16.48
2022-11-27T06:20:33.580Z,16.32
2022-11-27T06:23:00.198Z,16.49
2022-11-27T06:25:27.765Z,18.81
2022-11-27T06:27:54.367Z,27.35
2022-11-27T06:30:21.954Z,17.98
2022-11-27T06:32:49.548Z,15.74
2022-11-27T06:35:17.140Z,14.51
2022-11-27T06:37:44.725Z,14.98
2022-11-27T06:40:12.334Z,14.90
2022-11-27T06:42:39.931Z,15.12
2022-11-27T06:45:06.531Z,17.41
2022-11-27T06:47:33.118Z,17.55
2022-11-27T06:50:02.740Z,14.46
2022-11-27T06:52:29.237Z,13.91
2022-11-27T06:54:56.134Z,13.20
2022-11-27T06:57:23.565Z,12.86
2022-11-27T06:59:50.138Z,14.01
2022-11-27T07:02:16.860Z,12.92
2022-11-27T07:04:44.344Z,13.95
2022-11-27T07:07:11.982Z,12.79
2022-11-27T07:09:38.431Z,12.79
2022-11-27T07:12:06.170Z,13.04
2022-11-27T07:14:34.759Z,16.41
2022-11-27T07:17:01.345Z,16.20
2022-11-27T07:19:28.072Z,15.26
2022-11-27T07:21:54.554Z,13.88
2022-11-27T07:24:24.137Z,13.37
2022-11-27T07:26:51.879Z,12.34
2022-11-27T07:29:18.318Z,12.08
2022-11-27T07:31:45.115Z,11.49
2022-11-27T07:34:17.109Z,10.88
2022-11-27T07:36:48.271Z,9.01
2022-11-27T07:39:17.552Z,6.36
2022-11-27T07:41:49.518Z,5.76
2022-11-27T07:44:17.412Z,6.85
2022-11-27T07:46:44.703Z,6.96
2022-11-27T07:49:11.274Z,7.55
2022-11-27T07:51:37.764Z,8.21
2022-11-27T07:54:04.525Z,9.36
2022-11-27T07:56:32.075Z,10.09
2022-11-27T07:58:59.676Z,11.78
2022-11-27T08:01:26.308Z,12.51
2022-11-27T08:03:53.859Z,13.00
2022-11-27T08:06:21.442Z,13.71
2022-11-27T08:08:49.027Z,13.74
2022-11-27T08:11:15.635Z,23.97
2022-11-27T08:13:43.226Z,16.40
2022-11-27T08:16:10.909Z,15.87
2022-11-27T08:18:45.104Z,15.40
2022-11-27T08:21:14.061Z,15.83
2022-11-27T08:23:42.666Z,15.95
2022-11-27T08:26:11.266Z,15.14
2022-11-27T08:28:38.859Z,14.60
2022-11-27T08:31:06.444Z,14.81
2022-11-27T08:33:34.042Z,15.11
2022-11-27T08:36:03.403Z,15.09
2022-11-27T08:38:30.290Z,15.78
2022-11-27T08:40:58.189Z,15.17
2022-11-27T08:43:26.433Z,14.71
2022-11-27T08:45:53.061Z,14.49
2022-11-27T08:48:20.607Z,14.19
2022-11-27T08:50:47.190Z,14.40
2022-11-27T08:53:13.684Z,14.86
2022-11-27T08:55:40.371Z,14.94
2022-11-27T08:58:06.939Z,14.60
2022-11-27T09:00:33.680Z,14.49
2022-11-27T09:03:00.176Z,14.36
2022-11-27T09:05:26.599Z,14.36
2022-11-27T09:07:53.081Z,14.19
2022-11-27T09:10:19.980Z,14.32
2022-11-27T09:12:46.565Z,15.12
2022-11-27T09:15:13.196Z,14.62
2022-11-27T09:17:39.635Z,14.09
2022-11-27T09:20:06.399Z,15.61
2022-11-27T09:22:32.978Z,14.50
2022-11-27T09:24:59.564Z,15.59
2022-11-27T09:27:25.988Z,14.31
2022-11-27T09:29:52.491Z,14.80
2022-11-27T09:32:18.980Z,14.28
2022-11-27T09:34:45.993Z,14.01
2022-11-27T09:37:13.514Z,14.51
2022-11-27T09:39:40.099Z,14.18
2022-11-27T09:42:06.561Z,13.88
2022-11-27T09:44:33.296Z,14.21
2022-11-27T09:46:59.768Z,14.25
2022-11-27T09:49:26.464Z,14.74
2022-11-27T09:51:53.050Z,15.48
2022-11-27T09:54:20.653Z,13.93
2022-11-27T09:56:47.217Z,13.83
2022-11-27T09:59:13.815Z,13.86
2022-11-27T10:01:46.377Z,13.97
2022-11-27T10:04:18.025Z,14.29
2022-11-27T10:06:44.448Z,14.51
2022-11-27T10:09:11.286Z,13.96
2022-11-27T10:11:37.867Z,13.34
2022-11-27T10:14:04.448Z,13.58
2022-11-27T10:16:33.129Z,13.46
2022-11-27T10:19:00.648Z,13.06
2022-11-27T10:21:27.060Z,13.06
2022-11-27T10:23:53.512Z,12.80
2022-11-27T10:26:19.960Z,12.88
2022-11-27T10:28:46.412Z,13.50
2022-11-27T10:31:12.846Z,12.94
2022-11-27T10:33:40.188Z,13.24
2022-11-27T10:36:06.783Z,12.94
2022-11-27T10:38:33.236Z,12.56
2022-11-27T10:40:59.652Z,13.17
2022-11-27T10:43:26.551Z,12.84
2022-11-27T10:45:53.204Z,12.97
2022-11-27T10:48:20.720Z,12.33
2022-11-27T10:50:47.312Z,12.74
2022-11-27T10:53:14.909Z,12.13
2022-11-27T10:55:41.506Z,12.52
2022-11-27T10:58:07.899Z,12.18
2022-11-27T11:00:34.324Z,12.78
2022-11-27T11:03:00.947Z,13.11
2022-11-27T11:05:56.777Z,12.56
2022-11-27T11:08:15.646Z,12.55
2022-11-27T11:10:44.220Z,12.26
2022-11-27T11:13:12.813Z,12.41
2022-11-27T11:15:40.457Z,12.37
2022-11-27T11:18:08.048Z,12.13
2022-11-27T11:20:35.639Z,13.06
2022-11-27T11:23:03.231Z,12.97
2022-11-27T11:25:30.828Z,13.14
2022-11-27T11:27:58.425Z,12.52
2022-11-27T11:30:26.021Z,12.74
2022-11-27T11:32:55.027Z,12.94
2022-11-27T11:35:23.227Z,12.74
2022-11-27T11:37:50.804Z,12.66
2022-11-27T11:40:18.416Z,12.31
2022-11-27T11:42:46.014Z,12.21
2022-11-27T11:45:13.601Z,12.26
2022-11-27T11:47:42.210Z,12.58
2022-11-27T11:50:08.801Z,12.70
2022-11-27T11:52:36.396Z,12.50
2022-11-27T11:55:02.986Z,12.77
2022-11-27T11:57:29.579Z,13.26
2022-11-27T11:59:56.268Z,12.46
2022-11-27T12:02:22.957Z,13.84
2022-11-27T12:04:49.460Z,12.40
2022-11-27T12:07:15.921Z,14.06
2022-11-27T12:09:42.426Z,13.95
2022-11-27T12:12:08.849Z,13.44
2022-11-27T12:14:35.316Z,12.88
2022-11-27T12:17:01.864Z,12.92
2022-11-27T12:19:28.323Z,12.56
2022-11-27T12:21:54.749Z,12.69
2022-11-27T12:24:21.172Z,12.45
2022-11-27T12:26:47.629Z,13.10
2022-11-27T12:29:14.062Z,12.90
2022-11-27T12:31:40.774Z,13.43
2022-11-27T12:34:07.207Z,13.37
2022-11-27T12:36:33.695Z,12.92
2022-11-27T12:39:01.168Z,12.80
2022-11-27T12:41:27.880Z,12.66
2022-11-27T12:43:54.347Z,12.95
2022-11-27T12:46:21.144Z,13.07
2022-11-27T12:48:50.188Z,14.05
2022-11-27T12:51:18.189Z,13.48
2022-11-27T12:53:47.187Z,13.51
2022-11-27T12:56:16.346Z,13.33
2022-11-27T12:58:44.003Z,12.58
2022-11-27T13:01:13.084Z,13.26
2022-11-27T13:03:41.214Z,13.58
2022-11-27T13:06:10.223Z,13.46
2022-11-27T13:08:38.422Z,13.78
2022-11-27T13:11:06.011Z,12.95
2022-11-27T13:13:33.606Z,13.26
2022-11-27T13:16:02.287Z,13.42
2022-11-27T13:18:33.704Z,12.77
2022-11-27T13:21:02.408Z,12.31
2022-11-27T13:23:31.014Z,13.13
2022-11-27T13:25:58.636Z,15.07
2022-11-27T13:28:26.183Z,14.34
2022-11-27T13:30:53.774Z,13.43
2022-11-27T13:33:22.706Z,12.76
2022-11-27T13:35:50.991Z,13.14
2022-11-27T13:38:19.709Z,14.04
2022-11-27T13:40:47.178Z,13.52
2022-11-27T13:43:14.752Z,13.55
2022-11-27T13:45:42.416Z,13.73
2022-11-27T13:48:09.957Z,13.80
2022-11-27T13:50:40.361Z,13.63
2022-11-27T13:53:10.315Z,13.34
2022-11-27T13:55:37.131Z,13.24
2022-11-27T13:58:04.891Z,13.81
2022-11-27T14:00:31.467Z,14.01
2022-11-27T14:02:58.158Z,14.26
2022-11-27T14:05:25.718Z,13.79
2022-11-27T14:07:52.182Z,13.21
2022-11-27T14:10:18.670Z,13.91
2022-11-27T14:29:29.524Z,13.92
2022-11-27T14:54:19.273Z,13.78
2022-11-27T14:56:51.044Z,14.30
2022-11-27T14:59:34.389Z,16.50
2022-11-27T15:02:03.896Z,23.59
2022-11-27T15:04:57.351Z,14.01
2022-11-27T15:07:25.098Z,14.19
2022-11-27T15:09:52.497Z,14.26
2022-11-27T15:12:20.127Z,14.49
2022-11-27T15:14:47.696Z,14.73
2022-11-27T15:17:14.276Z,14.33
2022-11-27T15:19:43.797Z,14.74
2022-11-27T15:22:12.870Z,14.84
2022-11-27T15:27:21.949Z,15.40
2022-11-27T15:29:50.343Z,14.63
2022-11-27T15:32:23.473Z,33.82
2022-11-27T15:34:51.535Z,32.46
2022-11-27T15:37:19.137Z,24.90
2022-11-27T15:39:45.723Z,15.93
2022-11-27T15:42:13.350Z,15.38
2022-11-27T15:44:42.275Z,14.62
2022-11-27T15:47:10.512Z,15.33
2022-11-27T15:49:38.109Z,14.91
2022-11-27T15:52:04.713Z,14.95
2022-11-27T15:54:32.293Z,14.63
2022-11-27T15:56:59.887Z,15.09
2022-11-27T15:59:28.485Z,14.59
2022-11-27T16:01:56.141Z,14.52
2022-11-27T16:04:23.727Z,15.55
2022-11-27T16:06:51.271Z,15.82
2022-11-27T16:09:17.885Z,15.36
2022-11-27T16:11:45.530Z,14.63
2022-11-27T16:14:12.120Z,15.25
2022-11-27T16:16:39.791Z,15.06
2022-11-27T16:19:07.352Z,15.35
2022-11-27T16:21:35.010Z,15.56
2022-11-27T16:24:01.622Z,16.56
2022-11-27T16:26:29.250Z,15.59
2022-11-27T16:28:55.873Z,16.03
2022-11-27T16:31:22.570Z,18.72
2022-11-27T16:33:49.138Z,41.90
2022-11-27T16:36:16.667Z,38.87
2022-11-27T16:38:44.256Z,27.44
2022-11-27T16:41:10.870Z,27.68
2022-11-27T16:43:37.840Z,26.94
2022-11-27T16:46:04.343Z,26.89
2022-11-27T16:48:30.830Z,24.08
2022-11-27T16:50:57.297Z,17.56
2022-11-27T16:53:25.844Z,16.70
2022-11-27T16:55:52.412Z,17.12
2022-11-27T16:58:19.007Z,17.28
2022-11-27T17:00:45.464Z,17.38
2022-11-27T17:03:11.893Z,18.91
2022-11-27T17:05:38.345Z,15.95
2022-11-27T17:08:05.376Z,16.76
2022-11-27T17:10:31.989Z,15.68
2022-11-27T17:12:58.603Z,15.62
2022-11-27T17:15:25.184Z,15.46
2022-11-27T17:17:52.794Z,15.34
2022-11-27T17:20:19.398Z,15.06
2022-11-27T17:22:45.826Z,15.31
2022-11-27T17:25:12.259Z,14.67
2022-11-27T17:27:39.221Z,14.22
2022-11-27T17:30:06.796Z,15.43
2022-11-27T17:32:33.229Z,15.18
2022-11-27T17:34:59.985Z,14.53
2022-11-27T17:37:26.574Z,15.37
2022-11-27T17:39:53.167Z,15.30
2022-11-27T17:42:22.834Z,15.45
2022-11-27T17:44:50.393Z,15.71
2022-11-27T17:47:16.958Z,15.71
2022-11-27T17:49:43.834Z,16.52
2022-11-27T17:52:11.162Z,16.85
2022-11-27T17:54:38.778Z,17.64
2022-11-27T17:57:05.357Z,18.03
2022-11-27T17:59:31.935Z,18.15
2022-11-27T18:01:58.571Z,18.23
2022-11-27T18:04:26.182Z,20.36
2022-11-27T18:06:52.658Z,18.82
2022-11-27T18:09:20.361Z,18.66
2022-11-27T18:11:46.797Z,18.45
2022-11-27T18:14:14.625Z,18.52
2022-11-27T18:16:41.118Z,17.87
2022-11-27T18:19:08.879Z,17.55
2022-11-27T18:21:35.327Z,17.38
2022-11-27T18:27:08.461Z,16.72
2022-11-27T18:29:36.595Z,17.48
2022-11-27T18:32:03.549Z,17.23
2022-11-27T18:34:30.051Z,17.79
2022-11-27T18:36:56.500Z,17.73
2022-11-27T18:39:23.863Z,18.50
2022-11-27T18:41:50.329Z,17.66
2022-11-27T18:44:17.046Z,17.26
2022-11-27T18:46:43.654Z,17.87
2022-11-27T18:49:12.553Z,18.29
2022-11-27T18:51:39.011Z,24.22
2022-11-27T18:54:05.615Z,24.00
2022-11-27T18:56:32.290Z,21.82
2022-11-27T18:58:58.936Z,22.85
2022-11-27T19:01:25.443Z,27.13
2022-11-27T19:03:52.239Z,26.34
2022-11-27T19:06:19.788Z,25.11
2022-11-27T19:08:46.438Z,24.23
2022-11-27T19:11:12.869Z,23.21
2022-11-27T19:13:39.728Z,21.67
2022-11-27T19:16:06.737Z,20.82
2022-11-27T19:18:33.158Z,21.55
2022-11-27T19:20:59.604Z,20.49
2022-11-27T19:23:27.127Z,19.03
2022-11-27T19:25:53.710Z,18.84
2022-11-27T19:28:21.315Z,17.72
2022-11-27T19:30:48.198Z,18.07
2022-11-27T19:33:14.802Z,18.64
2022-11-27T19:35:41.605Z,19.53
2022-11-27T19:38:08.150Z,18.51
2022-11-27T19:40:36.513Z,18.24
2022-11-27T19:43:03.107Z,17.83
2022-11-27T19:45:29.940Z,18.26
2022-11-27T19:47:56.394Z,18.78
2022-11-27T19:50:24.123Z,19.08
2022-11-27T19:52:50.702Z,19.26
2022-11-27T19:55:18.306Z,18.66
2022-11-27T19:57:44.886Z,18.11
2022-11-27T20:00:11.484Z,16.89
2022-11-27T20:02:37.939Z,17.06
2022-11-27T20:05:04.405Z,16.75
2022-11-27T20:07:30.930Z,17.26
2022-11-27T20:09:57.843Z,16.79
2022-11-27T20:12:25.430Z,16.37
2022-11-27T20:14:52.015Z,17.81
2022-11-27T20:17:19.629Z,18.40
2022-11-27T20:19:46.227Z,18.30
2022-11-27T20:22:12.653Z,18.95
2022-11-27T20:24:53.050Z,17.07
2022-11-27T20:27:26.070Z,17.71
2022-11-27T20:29:55.371Z,17.07
2022-11-27T20:32:22.246Z,17.30
2022-11-27T20:34:48.838Z,17.35
2022-11-27T20:37:15.434Z,17.44
2022-11-27T20:39:42.227Z,17.63
2022-11-27T20:42:09.646Z,18.43
2022-11-27T20:44:36.215Z,18.23
2022-11-27T20:47:02.812Z,17.90
2022-11-27T20:49:29.386Z,17.58
2022-11-27T20:51:55.985Z,17.78
2022-11-27T20:54:22.593Z,17.64
2022-11-27T20:56:49.190Z,18.76
2022-11-27T20:59:15.797Z,19.33
2022-11-27T21:01:44.430Z,18.71
2022-11-27T21:04:11.984Z,17.56
2022-11-27T21:06:43.550Z,18.16
2022-11-27T21:09:10.423Z,17.23
2022-11-27T21:11:37.808Z,17.92
2022-11-27T21:14:04.394Z,18.53
2022-11-27T21:16:31.050Z,18.98
2022-11-27T21:18:58.608Z,19.73
2022-11-27T21:21:25.181Z,24.80
2022-11-27T21:23:52.781Z,20.77
2022-11-27T21:26:19.260Z,19.33
2022-11-27T21:28:46.961Z,18.46
2022-11-27T21:31:14.593Z,18.18
2022-11-27T21:33:42.159Z,18.66
2022-11-27T21:36:08.586Z,18.66
2022-11-27T21:38:35.377Z,18.79
2022-11-27T21:41:01.920Z,19.36
2022-11-27T21:43:30.738Z,18.93
2022-11-27T21:45:57.339Z,17.81
2022-11-27T21:48:23.858Z,18.39
2022-11-27T21:50:50.497Z,18.74
2022-11-27T21:53:17.212Z,18.47
2022-11-27T21:55:43.776Z,18.24
2022-11-27T21:58:10.231Z,19.11
2022-11-27T22:00:36.680Z,18.66
2022-11-27T22:03:03.157Z,19.17
2022-11-27T22:05:29.562Z,18.80
2022-11-27T22:07:57.073Z,19.46
2022-11-27T22:10:24.612Z,18.67
2022-11-27T22:12:51.037Z,20.24
2022-11-27T22:15:17.547Z,19.67
2022-11-27T22:17:44.025Z,18.72
2022-11-27T22:20:11.039Z,18.90
2022-11-27T22:22:38.629Z,19.59
2022-11-27T22:25:05.274Z,19.53
2022-11-27T22:27:32.832Z,19.83
2022-11-27T22:29:59.456Z,19.58
2022-11-27T22:32:26.090Z,20.32
2022-11-27T22:34:52.723Z,20.47
2022-11-27T22:37:21.342Z,20.19
2022-11-27T22:39:48.049Z,18.99
2022-11-27T22:42:14.833Z,19.33
2022-11-27T22:44:41.512Z,20.19
2022-11-27T22:47:08.081Z,19.55
2022-11-27T22:49:34.476Z,19.74
2022-11-27T22:52:00.907Z,19.82
2022-11-27T22:54:27.318Z,20.21
2022-11-27T22:56:53.731Z,19.38
2022-11-27T22:59:35.560Z,20.34
2022-11-27T23:02:02.056Z,20.44
2022-11-27T23:04:28.497Z,20.04
2022-11-27T23:06:54.966Z,19.84
2022-11-27T23:09:21.410Z,19.71
2022-11-27T23:11:47.868Z,19.48
2022-11-27T23:14:15.399Z,21.47
2022-11-27T23:16:43.063Z,20.44
2022-11-27T23:19:10.725Z,18.98
2022-11-27T23:21:38.188Z,20.07
2022-11-27T23:24:04.767Z,19.65
2022-11-27T23:26:31.372Z,19.40
2022-11-27T23:28:57.834Z,18.41
2022-11-27T23:31:31.965Z,19.46
2022-11-27T23:33:58.591Z,18.53
2022-11-27T23:36:25.763Z,18.34
2022-11-27T23:38:53.344Z,20.14
2022-11-27T23:41:20.931Z,20.17
2022-11-27T23:43:47.528Z,20.28
2022-11-27T23:46:14.199Z,19.99
2022-11-27T23:48:41.730Z,19.58
2022-11-27T23:51:08.124Z,18.76
2022-11-27T23:53:34.559Z,18.03
2022-11-27T23:56:00.963Z,17.55
2022-11-27T23:58:28.142Z,18.91
